MRPD weather

Pandora Airport
Limón, Limon, Costa Rica

Public forecast

Using degrees Celsius for public forecast. Weather courtesy of forecast.io.

METAR (pilot weather report)

Report is more than 2 hours old.

Closest report is Limon International Airport, 13.7 nm (25.5 km) N. Retrieved 2019/03/21 00:00 UTC (5 hours ago):

MRLM 210000Z 29003KT CAVOK 25/23 A2990

TAF (pilot weather forecast)

Forecast is more than 12 hours old.

Closest forecast is Limon International Airport, 13.7 nm (25.5 km) N. Retrieved 2019/03/20 00:12 UTC (1 day ago):

TAF MRLM 202300Z 2100/2124 32005KT 9999 FEW020 TX27/2119Z TN21/2111Z BECMG 2101/2104 26005KT BECMG 2115/2118 05005KT TEMPO 2118/2124 RA BKN020